Terminal Aerodrome Forecast
Issued by NWS

Home | Current Version | Previous Version | Text Only | Print | Product List | Glossary On
Versions: 1 2 3 4 5 6 7 8 9 10 11 12 13 14 15 16 17 18 19 20 21 22 23 24 25 26 27 28 29 30 31 32 33 34 35 36
000
FTUS41 KRNK 101440 AAA
TAFLWB
TAF AMD
KLWB 101440Z 1015/1112 21006KT 5SM -RA BKN006 OVC018
     FM102200 30007KT P6SM -RA OVC035
     FM110000 30006KT 4SM -SNRA OVC060
     FM110400 30005KT 2SM -SN OVC024
     FM111000 30005KT 6SM BR BKN060=

USA.gov is the U.S. government's official web portal to all federal, state and local government web resources and services.